sensor_id;sensor_type;location;lat;lon;timestamp;pressure;altitude;pressure_sealevel;temperature;humidity
31775;BME280;66189;49.000;11.640;2023-04-25T00:01:48;95288.88;;;6.35;71.08
31775;BME280;66189;49.000;11.640;2023-04-25T00:03:48;95291.13;;;6.33;71.56
31775;BME280;66189;49.000;11.640;2023-04-25T00:05:49;95289.50;;;6.29;71.81
31775;BME280;66189;49.000;11.640;2023-04-25T00:07:50;95301.56;;;6.22;72.07
31775;BME280;66189;49.000;11.640;2023-04-25T00:09:51;95293.59;;;6.10;72.57
31775;BME280;66189;49.000;11.640;2023-04-25T00:11:51;95290.59;;;6.12;72.60
31775;BME280;66189;49.000;11.640;2023-04-25T00:13:51;95285.78;;;6.17;72.19
31775;BME280;66189;49.000;11.640;2023-04-25T00:15:52;95288.88;;;6.03;73.08
31775;BME280;66189;49.000;11.640;2023-04-25T00:17:53;95288.47;;;6.01;73.11
31775;BME280;66189;49.000;11.640;2023-04-25T00:19:53;95288.88;;;6.03;72.73
31775;BME280;66189;49.000;11.640;2023-04-25T00:21:54;95291.34;;;5.96;73.25
31775;BME280;66189;49.000;11.640;2023-04-25T00:23:55;95289.78;;;5.79;74.07
31775;BME280;66189;49.000;11.640;2023-04-25T00:25:55;95286.47;;;5.98;73.12
31775;BME280;66189;49.000;11.640;2023-04-25T00:27:56;95285.50;;;5.91;73.64
31775;BME280;66189;49.000;11.640;2023-04-25T00:29:56;95284.63;;;5.86;73.68
31775;BME280;66189;49.000;11.640;2023-04-25T00:31:56;95282.38;;;5.88;73.49
31775;BME280;66189;49.000;11.640;2023-04-25T00:33:56;95273.34;;;5.93;73.07
31775;BME280;66189;49.000;11.640;2023-04-25T00:35:57;95274.13;;;5.94;72.96
31775;BME280;66189;49.000;11.640;2023-04-25T00:37:57;95279.00;;;5.92;72.97
31775;BME280;66189;49.000;11.640;2023-04-25T00:39:57;95279.13;;;5.95;73.15
31775;BME280;66189;49.000;11.640;2023-04-25T00:41:58;95272.56;;;5.93;73.45
31775;BME280;66189;49.000;11.640;2023-04-25T00:43:59;95275.16;;;5.89;73.48
31775;BME280;66189;49.000;11.640;2023-04-25T00:46:00;95269.03;;;5.88;73.58
31775;BME280;66189;49.000;11.640;2023-04-25T00:48:01;95274.63;;;5.83;73.71
31775;BME280;66189;49.000;11.640;2023-04-25T00:50:02;95277.72;;;5.69;74.46
31775;BME280;66189;49.000;11.640;2023-04-25T00:52:02;95274.44;;;5.76;74.37
31775;BME280;66189;49.000;11.640;2023-04-25T00:54:02;95272.19;;;5.78;74.12
31775;BME280;66189;49.000;11.640;2023-04-25T00:56:03;95276.84;;;5.81;74.35
31775;BME280;66189;49.000;11.640;2023-04-25T00:58:04;95266.84;;;5.78;74.59
31775;BME280;66189;49.000;11.640;2023-04-25T01:00:05;95261.09;;;5.76;74.54
31775;BME280;66189;49.000;11.640;2023-04-25T01:02:06;95261.69;;;5.69;74.99
31775;BME280;66189;49.000;11.640;2023-04-25T01:04:07;95266.00;;;5.74;74.65
31775;BME280;66189;49.000;11.640;2023-04-25T01:06:08;95263.00;;;5.76;74.42
31775;BME280;66189;49.000;11.640;2023-04-25T01:08:09;95268.22;;;5.72;74.79
31775;BME280;66189;49.000;11.640;2023-04-25T01:10:09;95271.34;;;5.74;74.36
31775;BME280;66189;49.000;11.640;2023-04-25T01:12:11;95270.31;;;5.79;74.07
31775;BME280;66189;49.000;11.640;2023-04-25T01:14:11;95275.31;;;5.80;74.78
31775;BME280;66189;49.000;11.640;2023-04-25T01:16:12;95279.59;;;5.69;76.94
31775;BME280;66189;49.000;11.640;2023-04-25T01:18:12;95264.94;;;5.63;76.25
31775;BME280;66189;49.000;11.640;2023-04-25T01:20:12;95278.91;;;5.72;76.34
31775;BME280;66189;49.000;11.640;2023-04-25T01:22:14;95268.91;;;5.69;75.91
31775;BME280;66189;49.000;11.640;2023-04-25T01:24:14;95272.47;;;5.73;74.91
31775;BME280;66189;49.000;11.640;2023-04-25T01:26:15;95267.13;;;5.73;73.89
31775;BME280;66189;49.000;11.640;2023-04-25T01:28:16;95266.84;;;5.78;73.95
31775;BME280;66189;49.000;11.640;2023-04-25T01:30:17;95270.66;;;5.77;74.36
31775;BME280;66189;49.000;11.640;2023-04-25T01:32:17;95271.44;;;5.78;74.18
31775;BME280;66189;49.000;11.640;2023-04-25T01:34:18;95271.59;;;5.69;74.18
31775;BME280;66189;49.000;11.640;2023-04-25T01:36:18;95266.78;;;5.75;74.00
31775;BME280;66189;49.000;11.640;2023-04-25T01:38:19;95264.44;;;5.73;74.21
31775;BME280;66189;49.000;11.640;2023-04-25T01:40:19;95273.56;;;5.72;74.52
31775;BME280;66189;49.000;11.640;2023-04-25T01:42:23;95262.88;;;5.72;74.06
31775;BME280;66189;49.000;11.640;2023-04-25T01:44:23;95270.91;;;5.72;73.82
31775;BME280;66189;49.000;11.640;2023-04-25T01:46:24;95261.44;;;5.75;73.95
31775;BME280;66189;49.000;11.640;2023-04-25T01:48:24;95271.84;;;5.64;74.38
31775;BME280;66189;49.000;11.640;2023-04-25T01:50:25;95267.53;;;5.59;74.68
31775;BME280;66189;49.000;11.640;2023-04-25T01:52:25;95268.34;;;5.47;74.83
31775;BME280;66189;49.000;11.640;2023-04-25T01:54:26;95265.63;;;5.60;74.32
31775;BME280;66189;49.000;11.640;2023-04-25T01:56:30;95266.22;;;5.53;75.15
31775;BME280;66189;49.000;11.640;2023-04-25T01:58:31;95261.38;;;5.43;75.52
31775;BME280;66189;49.000;11.640;2023-04-25T02:01:03;95261.28;;;5.39;75.76
31775;BME280;66189;49.000;11.640;2023-04-25T02:03:11;95261.63;;;5.38;75.86
31775;BME280;66189;49.000;11.640;2023-04-25T02:05:11;95261.38;;;5.43;75.53
31775;BME280;66189;49.000;11.640;2023-04-25T02:07:13;95248.72;;;5.40;75.58
31775;BME280;66189;49.000;11.640;2023-04-25T02:09:22;95258.78;;;5.46;75.07
31775;BME280;66189;49.000;11.640;2023-04-25T02:11:26;95256.13;;;5.46;75.53
31775;BME280;66189;49.000;11.640;2023-04-25T02:13:47;95256.94;;;5.47;75.48
31775;BME280;66189;49.000;11.640;2023-04-25T02:15:58;95263.28;;;5.42;75.57
31775;BME280;66189;49.000;11.640;2023-04-25T02:17:59;95264.31;;;5.38;75.97
31775;BME280;66189;49.000;11.640;2023-04-25T02:20:00;95260.91;;;5.53;75.53
31775;BME280;66189;49.000;11.640;2023-04-25T02:22:00;95252.28;;;5.44;76.18
31775;BME280;66189;49.000;11.640;2023-04-25T02:24:01;95259.94;;;5.45;75.96
31775;BME280;66189;49.000;11.640;2023-04-25T02:26:02;95253.28;;;5.39;76.11
31775;BME280;66189;49.000;11.640;2023-04-25T02:28:03;95245.03;;;5.44;75.51
31775;BME280;66189;49.000;11.640;2023-04-25T02:30:04;95247.63;;;5.41;75.50
31775;BME280;66189;49.000;11.640;2023-04-25T02:32:07;95245.72;;;5.41;75.68
31775;BME280;66189;49.000;11.640;2023-04-25T02:34:07;95246.13;;;5.43;75.44
31775;BME280;66189;49.000;11.640;2023-04-25T02:36:10;95240.47;;;5.45;75.27
31775;BME280;66189;49.000;11.640;2023-04-25T02:38:10;95233.94;;;5.42;75.31
31775;BME280;66189;49.000;11.640;2023-04-25T02:40:11;95231.34;;;5.46;75.35
31775;BME280;66189;49.000;11.640;2023-04-25T02:42:11;95236.00;;;5.49;75.34
31775;BME280;66189;49.000;11.640;2023-04-25T02:44:11;95231.78;;;5.48;75.72
31775;BME280;66189;49.000;11.640;2023-04-25T02:46:11;95231.88;;;5.51;75.49
31775;BME280;66189;49.000;11.640;2023-04-25T02:48:13;95228.97;;;5.57;75.17
31775;BME280;66189;49.000;11.640;2023-04-25T02:50:13;95228.00;;;5.49;75.76
31775;BME280;66189;49.000;11.640;2023-04-25T02:52:14;95227.25;;;5.48;75.66
31775;BME280;66189;49.000;11.640;2023-04-25T02:54:15;95228.34;;;5.47;75.66
31775;BME280;66189;49.000;11.640;2023-04-25T02:56:20;95222.59;;;5.45;76.07
31775;BME280;66189;49.000;11.640;2023-04-25T02:58:20;95228.88;;;5.53;75.50
31775;BME280;66189;49.000;11.640;2023-04-25T03:00:23;95224.47;;;5.45;75.72
31775;BME280;66189;49.000;11.640;2023-04-25T03:02:24;95236.94;;;5.41;75.84
31775;BME280;66189;49.000;11.640;2023-04-25T03:04:24;95233.16;;;5.42;75.73
31775;BME280;66189;49.000;11.640;2023-04-25T03:06:25;95231.00;;;5.47;75.71
31775;BME280;66189;49.000;11.640;2023-04-25T03:08:26;95230.75;;;5.37;76.24
31775;BME280;66189;49.000;11.640;2023-04-25T03:10:29;95219.31;;;5.36;76.17
31775;BME280;66189;49.000;11.640;2023-04-25T03:12:33;95224.19;;;5.34;76.48
31775;BME280;66189;49.000;11.640;2023-04-25T03:14:34;95218.28;;;5.41;75.97
31775;BME280;66189;49.000;11.640;2023-04-25T03:16:34;95214.41;;;5.38;76.11
31775;BME280;66189;49.000;11.640;2023-04-25T03:18:35;95221.22;;;5.51;75.75
31775;BME280;66189;49.000;11.640;2023-04-25T03:20:35;95229.38;;;5.43;76.25
31775;BME280;66189;49.000;11.640;2023-04-25T03:22:37;95218.97;;;5.54;76.05
31775;BME280;66189;49.000;11.640;2023-04-25T03:24:37;95219.47;;;5.43;76.14
31775;BME280;66189;49.000;11.640;2023-04-25T03:26:38;95218.97;;;5.38;76.32
31775;BME280;66189;49.000;11.640;2023-04-25T03:28:39;95219.25;;;5.48;76.21
31775;BME280;66189;49.000;11.640;2023-04-25T03:30:40;95219.91;;;5.45;76.39
31775;BME280;66189;49.000;11.640;2023-04-25T03:32:41;95221.22;;;5.51;76.17
31775;BME280;66189;49.000;11.640;2023-04-25T03:34:41;95218.91;;;5.66;76.19
31775;BME280;66189;49.000;11.640;2023-04-25T03:36:41;95218.41;;;5.60;75.73
31775;BME280;66189;49.000;11.640;2023-04-25T03:38:43;95209.88;;;5.55;76.11
31775;BME280;66189;49.000;11.640;2023-04-25T03:40:45;95216.06;;;5.59;75.85
31775;BME280;66189;49.000;11.640;2023-04-25T03:42:59;95204.03;;;5.65;76.23
31775;BME280;66189;49.000;11.640;2023-04-25T03:44:59;95210.13;;;5.65;76.54
31775;BME280;66189;49.000;11.640;2023-04-25T03:47:00;95211.22;;;5.64;76.43
31775;BME280;66189;49.000;11.640;2023-04-25T03:49:00;95216.06;;;5.59;76.32
31775;BME280;66189;49.000;11.640;2023-04-25T03:51:13;95217.78;;;5.67;76.32
31775;BME280;66189;49.000;11.640;2023-04-25T03:53:17;95215.38;;;5.62;76.22
31775;BME280;66189;49.000;11.640;2023-04-25T03:55:40;95221.72;;;5.57;77.28
31775;BME280;66189;49.000;11.640;2023-04-25T03:57:41;95218.13;;;5.65;76.54
31775;BME280;66189;49.000;11.640;2023-04-25T03:59:42;95213.81;;;5.61;77.12
31775;BME280;66189;49.000;11.640;2023-04-25T04:01:45;95205.31;;;5.71;76.41
31775;BME280;66189;49.000;11.640;2023-04-25T04:03:45;95211.22;;;5.64;76.96
31775;BME280;66189;49.000;11.640;2023-04-25T04:05:46;95202.88;;;5.66;76.84
31775;BME280;66189;49.000;11.640;2023-04-25T04:07:47;95211.22;;;5.64;76.46
31775;BME280;66189;49.000;11.640;2023-04-25T04:09:48;95201.44;;;5.68;76.38
31775;BME280;66189;49.000;11.640;2023-04-25T04:11:54;95207.47;;;5.65;76.47
31775;BME280;66189;49.000;11.640;2023-04-25T04:13:55;95205.56;;;5.66;76.42
31775;BME280;66189;49.000;11.640;2023-04-25T04:15:56;95206.00;;;5.68;76.82
31775;BME280;66189;49.000;11.640;2023-04-25T04:17:58;95209.06;;;5.54;77.30
31775;BME280;66189;49.000;11.640;2023-04-25T04:20:02;95199.78;;;5.48;77.39
31775;BME280;66189;49.000;11.640;2023-04-25T04:22:05;95206.47;;;5.42;77.91
31775;BME280;66189;49.000;11.640;2023-04-25T04:24:05;95195.03;;;5.41;77.77
31775;BME280;66189;49.000;11.640;2023-04-25T04:26:16;95196.59;;;5.42;77.42
31775;BME280;66189;49.000;11.640;2023-04-25T04:28:40;95199.59;;;5.41;77.50
31775;BME280;66189;49.000;11.640;2023-04-25T04:30:54;95199.88;;;5.51;76.77
31775;BME280;66189;49.000;11.640;2023-04-25T04:32:55;95199.44;;;5.49;76.96
31775;BME280;66189;49.000;11.640;2023-04-25T04:34:56;95205.56;;;5.50;77.08
31775;BME280;66189;49.000;11.640;2023-04-25T04:36:58;95206.38;;;5.38;77.32
31775;BME280;66189;49.000;11.640;2023-04-25T04:38:59;95195.81;;;5.42;77.18
31775;BME280;66189;49.000;11.640;2023-04-25T04:41:12;95208.72;;;5.40;77.74
31775;BME280;66189;49.000;11.640;2023-04-25T04:43:35;95202.50;;;5.36;77.92
31775;BME280;66189;49.000;11.640;2023-04-25T04:45:55;95205.63;;;5.38;77.59
31775;BME280;66189;49.000;11.640;2023-04-25T04:48:12;95202.78;;;5.46;77.13
31775;BME280;66189;49.000;11.640;2023-04-25T04:50:32;95209.94;;;5.42;77.08
31775;BME280;66189;49.000;11.640;2023-04-25T04:53:06;95213.56;;;5.50;77.10
31775;BME280;66189;49.000;11.640;2023-04-25T04:55:25;95204.88;;;5.53;76.48
31775;BME280;66189;49.000;11.640;2023-04-25T04:57:57;95215.38;;;5.62;76.26
31775;BME280;66189;49.000;11.640;2023-04-25T05:00:12;95213.81;;;5.61;76.08
31775;BME280;66189;49.000;11.640;2023-04-25T05:02:29;95212.41;;;5.51;76.19
31775;BME280;66189;49.000;11.640;2023-04-25T05:04:56;95214.84;;;5.56;76.70
31775;BME280;66189;49.000;11.640;2023-04-25T05:07:15;95210.81;;;5.62;76.28
31775;BME280;66189;49.000;11.640;2023-04-25T05:09:47;95214.28;;;5.79;76.04
31775;BME280;66189;49.000;11.640;2023-04-25T05:12:06;95218.66;;;5.71;75.93
31775;BME280;66189;49.000;11.640;2023-04-25T05:14:13;95212.63;;;5.74;76.04
31775;BME280;66189;49.000;11.640;2023-04-25T05:16:37;95219.34;;;5.84;75.78
31775;BME280;66189;49.000;11.640;2023-04-25T05:19:07;95215.22;;;5.86;75.77
31775;BME280;66189;49.000;11.640;2023-04-25T05:21:36;95209.09;;;5.86;76.08
31775;BME280;66189;49.000;11.640;2023-04-25T05:23:51;95201.59;;;5.92;76.03
31775;BME280;66189;49.000;11.640;2023-04-25T05:26:10;95214.81;;;6.00;75.05
31775;BME280;66189;49.000;11.640;2023-04-25T05:28:32;95213.25;;;5.99;75.61
31775;BME280;66189;49.000;11.640;2023-04-25T05:30:52;95216.72;;;6.00;75.48
31775;BME280;66189;49.000;11.640;2023-04-25T05:32:56;95209.53;;;6.04;75.09
31775;BME280;66189;49.000;11.640;2023-04-25T05:34:56;95210.41;;;6.08;75.07
31775;BME280;66189;49.000;11.640;2023-04-25T05:37:00;95202.97;;;6.17;75.28
31775;BME280;66189;49.000;11.640;2023-04-25T05:39:01;95198.06;;;6.19;75.01
31775;BME280;66189;49.000;11.640;2023-04-25T05:41:21;95205.72;;;6.37;74.08
31775;BME280;66189;49.000;11.640;2023-04-25T05:43:47;95204.00;;;6.29;74.33
31775;BME280;66189;49.000;11.640;2023-04-25T05:45:55;95191.94;;;6.35;74.74
31775;BME280;66189;49.000;11.640;2023-04-25T05:48:23;95201.66;;;6.43;74.40
31775;BME280;66189;49.000;11.640;2023-04-25T05:50:53;95203.56;;;6.43;73.92
31775;BME280;66189;49.000;11.640;2023-04-25T05:53:12;95196.03;;;6.48;73.56
31775;BME280;66189;49.000;11.640;2023-04-25T05:55:15;95202.75;;;6.42;73.84
31775;BME280;66189;49.000;11.640;2023-04-25T05:57:22;95196.72;;;6.45;74.22
31775;BME280;66189;49.000;11.640;2023-04-25T05:59:23;95197.69;;;6.53;73.98
31775;BME280;66189;49.000;11.640;2023-04-25T06:01:23;95207.22;;;6.54;74.06
31775;BME280;66189;49.000;11.640;2023-04-25T06:03:24;95205.00;;;6.56;73.87
31775;BME280;66189;49.000;11.640;2023-04-25T06:05:24;95209.63;;;6.59;73.93
31775;BME280;66189;49.000;11.640;2023-04-25T06:07:25;95208.72;;;6.71;73.80
31775;BME280;66189;49.000;11.640;2023-04-25T06:09:25;95204.50;;;6.70;73.46
31775;BME280;66189;49.000;11.640;2023-04-25T06:11:27;95205.09;;;6.79;73.48
31775;BME280;66189;49.000;11.640;2023-04-25T06:13:28;95204.09;;;6.87;72.86
31775;BME280;66189;49.000;11.640;2023-04-25T06:15:29;95200.84;;;6.98;72.28
31775;BME280;66189;49.000;11.640;2023-04-25T06:17:30;95187.78;;;6.92;71.35
31775;BME280;66189;49.000;11.640;2023-04-25T06:19:30;95204.75;;;7.00;71.46
31775;BME280;66189;49.000;11.640;2023-04-25T06:21:31;95207.47;;;7.04;71.80
31775;BME280;66189;49.000;11.640;2023-04-25T06:23:32;95211.84;;;6.92;71.75
31775;BME280;66189;49.000;11.640;2023-04-25T06:25:38;95201.22;;;6.96;72.66
31775;BME280;66189;49.000;11.640;2023-04-25T06:27:39;95211.97;;;7.00;72.67
31775;BME280;66189;49.000;11.640;2023-04-25T06:29:39;95208.94;;;7.01;72.44
31775;BME280;66189;49.000;11.640;2023-04-25T06:31:40;95209.78;;;7.05;72.09
31775;BME280;66189;49.000;11.640;2023-04-25T06:33:40;95210.78;;;6.97;71.67
31775;BME280;66189;49.000;11.640;2023-04-25T06:35:40;95216.25;;;7.04;71.89
31775;BME280;66189;49.000;11.640;2023-04-25T06:37:46;95214.09;;;7.10;71.91
31775;BME280;66189;49.000;11.640;2023-04-25T06:39:47;95219.94;;;6.96;72.20
31775;BME280;66189;49.000;11.640;2023-04-25T06:41:49;95206.97;;;6.98;73.03
31775;BME280;66189;49.000;11.640;2023-04-25T06:44:09;95211.50;;;6.94;72.38
31775;BME280;66189;49.000;11.640;2023-04-25T06:46:14;95207.88;;;7.06;71.92
31775;BME280;66189;49.000;11.640;2023-04-25T06:48:18;95215.56;;;7.07;71.63
31775;BME280;66189;49.000;11.640;2023-04-25T06:50:18;95210.78;;;7.17;71.51
31775;BME280;66189;49.000;11.640;2023-04-25T06:52:19;95218.53;;;7.02;71.51
31775;BME280;66189;49.000;11.640;2023-04-25T06:54:21;95212.81;;;7.04;71.88
31775;BME280;66189;49.000;11.640;2023-04-25T06:56:30;95211.72;;;7.05;72.31
31775;BME280;66189;49.000;11.640;2023-04-25T06:58:39;95215.66;;;7.11;70.44
31775;BME280;66189;49.000;11.640;2023-04-25T07:00:50;95218.59;;;7.06;71.20
31775;BME280;66189;49.000;11.640;2023-04-25T07:02:51;95212.47;;;7.05;71.63
31775;BME280;66189;49.000;11.640;2023-04-25T07:04:52;95217.16;;;7.12;71.74
31775;BME280;66189;49.000;11.640;2023-04-25T07:06:52;95218.38;;;7.15;72.34
31775;BME280;66189;49.000;11.640;2023-04-25T07:08:58;95214.59;;;7.16;70.76
31775;BME280;66189;49.000;11.640;2023-04-25T07:10:58;95214.78;;;7.26;70.92
31775;BME280;66189;49.000;11.640;2023-04-25T07:12:59;95218.78;;;7.36;71.13
31775;BME280;66189;49.000;11.640;2023-04-25T07:14:59;95217.72;;;7.41;71.34
31775;BME280;66189;49.000;11.640;2023-04-25T07:17:00;95215.03;;;7.41;71.17
31775;BME280;66189;49.000;11.640;2023-04-25T07:19:03;95214.09;;;7.53;69.42
31775;BME280;66189;49.000;11.640;2023-04-25T07:21:03;95216.06;;;7.56;69.16
31775;BME280;66189;49.000;11.640;2023-04-25T07:23:06;95222.69;;;7.62;68.41
31775;BME280;66189;49.000;11.640;2023-04-25T07:25:07;95216.97;;;7.63;68.30
31775;BME280;66189;49.000;11.640;2023-04-25T07:27:08;95211.22;;;7.61;67.78
31775;BME280;66189;49.000;11.640;2023-04-25T07:29:29;95215.53;;;7.70;67.76
31775;BME280;66189;49.000;11.640;2023-04-25T07:31:33;95217.72;;;7.83;67.88
31775;BME280;66189;49.000;11.640;2023-04-25T07:33:33;95211.69;;;7.90;67.31
31775;BME280;66189;49.000;11.640;2023-04-25T07:35:33;95203.63;;;8.13;68.14
31775;BME280;66189;49.000;11.640;2023-04-25T07:37:34;95211.41;;;8.22;68.64
31775;BME280;66189;49.000;11.640;2023-04-25T07:39:40;95211.41;;;8.22;67.95
31775;BME280;66189;49.000;11.640;2023-04-25T07:41:40;95221.81;;;8.00;66.68
31775;BME280;66189;49.000;11.640;2023-04-25T07:43:46;95216.13;;;8.06;66.08
31775;BME280;66189;49.000;11.640;2023-04-25T07:45:47;95213.06;;;8.04;66.36
31775;BME280;66189;49.000;11.640;2023-04-25T07:47:49;95209.78;;;8.14;66.50
31775;BME280;66189;49.000;11.640;2023-04-25T07:49:50;95218.47;;;8.07;66.27
31775;BME280;66189;49.000;11.640;2023-04-25T07:51:51;95214.66;;;8.08;65.90
31775;BME280;66189;49.000;11.640;2023-04-25T07:53:53;95211.09;;;8.00;66.10
31775;BME280;66189;49.000;11.640;2023-04-25T07:55:54;95216.50;;;8.04;66.36
31775;BME280;66189;49.000;11.640;2023-04-25T07:57:55;95221.22;;;8.11;66.31
31775;BME280;66189;49.000;11.640;2023-04-25T07:59:56;95210.91;;;8.13;65.87
31775;BME280;66189;49.000;11.640;2023-04-25T08:01:56;95214.69;;;8.12;64.79
31775;BME280;66189;49.000;11.640;2023-04-25T08:03:58;95209.06;;;8.17;63.60
31775;BME280;66189;49.000;11.640;2023-04-25T08:06:16;95208.97;;;8.13;65.43
31775;BME280;66189;49.000;11.640;2023-04-25T08:08:35;95216.31;;;8.16;64.33
31775;BME280;66189;49.000;11.640;2023-04-25T08:10:36;95217.03;;;8.13;64.63
31775;BME280;66189;49.000;11.640;2023-04-25T08:12:37;95216.13;;;8.06;64.06
31775;BME280;66189;49.000;11.640;2023-04-25T08:14:39;95214.13;;;7.99;65.13
31775;BME280;66189;49.000;11.640;2023-04-25T08:16:40;95217.94;;;7.98;65.32
31775;BME280;66189;49.000;11.640;2023-04-25T08:18:40;95219.66;;;8.10;65.57
31775;BME280;66189;49.000;11.640;2023-04-25T08:20:41;95217.63;;;8.03;66.33
31775;BME280;66189;49.000;11.640;2023-04-25T08:22:44;95226.91;;;7.86;67.47
31775;BME280;66189;49.000;11.640;2023-04-25T08:25:11;95223.53;;;7.89;69.12
31775;BME280;66189;49.000;11.640;2023-04-25T08:27:12;95229.38;;;7.72;69.10
31775;BME280;66189;49.000;11.640;2023-04-25T08:29:14;95232.31;;;7.67;70.85
31775;BME280;66189;49.000;11.640;2023-04-25T08:31:15;95241.72;;;7.57;72.92
31775;BME280;66189;49.000;11.640;2023-04-25T08:33:28;95241.06;;;7.63;73.22
31775;BME280;66189;49.000;11.640;2023-04-25T08:35:45;95237.97;;;7.61;73.58
31775;BME280;66189;49.000;11.640;2023-04-25T08:37:47;95242.91;;;7.59;73.44
31775;BME280;66189;49.000;11.640;2023-04-25T08:39:49;95247.38;;;7.52;73.13
31775;BME280;66189;49.000;11.640;2023-04-25T08:41:52;95247.47;;;7.59;73.93
31775;BME280;66189;49.000;11.640;2023-04-25T08:43:53;95253.03;;;7.70;74.29
31775;BME280;66189;49.000;11.640;2023-04-25T08:45:53;95248.25;;;7.79;74.75
31775;BME280;66189;49.000;11.640;2023-04-25T08:48:19;95248.69;;;7.61;74.31
31775;BME280;66189;49.000;11.640;2023-04-25T08:50:19;95254.34;;;7.79;74.55
31775;BME280;66189;49.000;11.640;2023-04-25T08:52:23;95258.53;;;7.57;74.04
31775;BME280;66189;49.000;11.640;2023-04-25T08:54:26;95265.41;;;7.55;76.32
31775;BME280;66189;49.000;11.640;2023-04-25T08:56:30;95265.03;;;7.56;76.05
31775;BME280;66189;49.000;11.640;2023-04-25T08:58:32;95272.78;;;7.42;73.59
31775;BME280;66189;49.000;11.640;2023-04-25T09:00:32;95278.78;;;7.55;74.17
31775;BME280;66189;49.000;11.640;2023-04-25T09:02:33;95277.75;;;7.82;74.43
31775;BME280;66189;49.000;11.640;2023-04-25T09:04:33;95280.41;;;7.82;72.35
31775;BME280;66189;49.000;11.640;2023-04-25T09:06:33;95285.72;;;7.79;73.96
31775;BME280;66189;49.000;11.640;2023-04-25T09:08:36;95286.66;;;7.67;72.03
31775;BME280;66189;49.000;11.640;2023-04-25T09:10:36;95289.97;;;7.41;71.98
31775;BME280;66189;49.000;11.640;2023-04-25T09:12:37;95294.69;;;7.47;72.47
31775;BME280;66189;49.000;11.640;2023-04-25T09:14:39;95295.78;;;7.07;72.52
31775;BME280;66189;49.000;11.640;2023-04-25T09:19:10;95304.63;;;6.92;77.21
31775;BME280;66189;49.000;11.640;2023-04-25T09:21:21;95304.97;;;7.06;77.98
31775;BME280;66189;49.000;11.640;2023-04-25T09:23:23;95312.22;;;7.25;78.56
31775;BME280;66189;49.000;11.640;2023-04-25T09:25:23;95310.00;;;7.47;78.33
31775;BME280;66189;49.000;11.640;2023-04-25T09:27:25;95313.16;;;7.95;78.65
31775;BME280;66189;49.000;11.640;2023-04-25T09:29:36;95312.53;;;8.71;79.70
31775;BME280;66189;49.000;11.640;2023-04-25T09:31:38;95304.09;;;9.00;76.06
31775;BME280;66189;49.000;11.640;2023-04-25T09:33:40;95312.25;;;8.80;74.62
31775;BME280;66189;49.000;11.640;2023-04-25T09:35:43;95320.03;;;8.62;76.28
31775;BME280;66189;49.000;11.640;2023-04-25T09:37:48;95323.75;;;7.88;73.15
31775;BME280;66189;49.000;11.640;2023-04-25T09:40:07;95323.13;;;7.56;75.25
31775;BME280;66189;49.000;11.640;2023-04-25T09:42:16;95325.97;;;7.63;76.62
31775;BME280;66189;49.000;11.640;2023-04-25T09:44:19;95324.63;;;7.53;76.73
31775;BME280;66189;49.000;11.640;2023-04-25T09:46:23;95334.97;;;7.35;76.78
31775;BME280;66189;49.000;11.640;2023-04-25T09:48:28;95330.81;;;7.38;77.71
31775;BME280;66189;49.000;11.640;2023-04-25T09:50:31;95337.72;;;7.39;77.53
31775;BME280;66189;49.000;11.640;2023-04-25T09:52:39;95334.44;;;7.10;76.43
31775;BME280;66189;49.000;11.640;2023-04-25T09:54:51;95335.16;;;7.07;77.79
31775;BME280;66189;49.000;11.640;2023-04-25T09:57:01;95337.97;;;7.14;78.53
31775;BME280;66189;49.000;11.640;2023-04-25T09:59:03;95340.84;;;7.05;78.26
31775;BME280;66189;49.000;11.640;2023-04-25T10:01:08;95342.78;;;6.89;77.98
31775;BME280;66189;49.000;11.640;2023-04-25T10:03:20;95341.59;;;7.06;77.43
31775;BME280;66189;49.000;11.640;2023-04-25T10:05:36;95339.63;;;6.83;76.69
31775;BME280;66189;49.000;11.640;2023-04-25T10:07:39;95353.28;;;6.98;76.77
31775;BME280;66189;49.000;11.640;2023-04-25T10:09:47;95344.63;;;7.04;77.46
31775;BME280;66189;49.000;11.640;2023-04-25T10:11:48;95345.31;;;7.17;76.07
31775;BME280;66189;49.000;11.640;2023-04-25T10:13:48;95341.50;;;7.38;77.13
31775;BME280;66189;49.000;11.640;2023-04-25T10:15:48;95345.81;;;7.62;76.28
31775;BME280;66189;49.000;11.640;2023-04-25T10:17:49;95346.88;;;7.77;74.85
31775;BME280;66189;49.000;11.640;2023-04-25T10:19:50;95347.72;;;7.81;71.76
31775;BME280;66189;49.000;11.640;2023-04-25T10:21:51;95347.78;;;7.85;70.47
31775;BME280;66189;49.000;11.640;2023-04-25T10:23:52;95343.25;;;8.54;68.09
31775;BME280;66189;49.000;11.640;2023-04-25T10:25:52;95340.25;;;8.83;68.79
31775;BME280;66189;49.000;11.640;2023-04-25T10:27:53;95347.91;;;8.58;65.73
31775;BME280;66189;49.000;11.640;2023-04-25T10:30:04;95349.34;;;9.01;67.34
31775;BME280;66189;49.000;11.640;2023-04-25T10:32:04;95348.28;;;9.36;65.78
31775;BME280;66189;49.000;11.640;2023-04-25T10:34:05;95356.44;;;9.77;66.11
31775;BME280;66189;49.000;11.640;2023-04-25T10:36:12;95352.16;;;9.39;64.52
31775;BME280;66189;49.000;11.640;2023-04-25T10:38:13;95354.50;;;9.44;63.85
31775;BME280;66189;49.000;11.640;2023-04-25T10:40:14;95353.59;;;9.33;66.51
31775;BME280;66189;49.000;11.640;2023-04-25T10:42:21;95348.47;;;9.20;64.05
31775;BME280;66189;49.000;11.640;2023-04-25T10:44:22;95357.56;;;8.62;63.62
31775;BME280;66189;49.000;11.640;2023-04-25T10:46:23;95340.91;;;9.30;64.63
31775;BME280;66189;49.000;11.640;2023-04-25T10:48:27;95345.69;;;9.77;67.18
31775;BME280;66189;49.000;11.640;2023-04-25T10:50:36;95335.25;;;9.69;63.02
31775;BME280;66189;49.000;11.640;2023-04-25T10:52:40;95340.19;;;9.06;63.99
31775;BME280;66189;49.000;11.640;2023-04-25T10:54:47;95334.91;;;9.70;62.29
31775;BME280;66189;49.000;11.640;2023-04-25T10:56:48;95343.22;;;10.33;63.03
31775;BME280;66189;49.000;11.640;2023-04-25T10:58:48;95343.56;;;9.90;60.03
31775;BME280;66189;49.000;11.640;2023-04-25T11:00:49;95340.19;;;9.63;60.41
31775;BME280;66189;49.000;11.640;2023-04-25T11:02:53;95343.84;;;9.82;61.37